Time;durP1;ratioP1;P1;durP2;ratioP2;P2;SDS_P1;SDS_P2;PMS_P1;PMS_P2;Temp;Humidity;BMP_temperature;BMP_pressure;BME280_temperature;BME280_humidity;BME280_pressure;Samples;Min_cycle;Max_cycle;Signal;HPM_P1;HPM_P2
2021/03/26 00:00:52;;;;;;;14.80;4.10;;;;;;;;;;5007233;28;20049;-60
2021/03/26 00:03:19;;;;;;;16.10;4.50;;;;;;;;;;5005446;28;20049;-60
2021/03/26 00:05:47;;;;;;;13.43;4.90;;;;;;;;;;5004362;28;20042;-57
2021/03/26 00:08:15;;;;;;;14.07;4.43;;;;;;;;;;4996872;28;20044;-59
2021/03/26 00:10:43;;;;;;;12.25;4.75;;;;;;;;;;5008913;28;20038;-58
2021/03/26 00:13:09;;;;;;;16.75;4.95;;;;;;;;;;4993873;28;20114;-62
2021/03/26 00:15:36;;;;;;;13.80;4.80;;;;;;;;;;4988024;28;20042;-61
2021/03/26 00:18:02;;;;;;;14.02;4.25;;;;;;;;;;4991416;28;20057;-61
2021/03/26 00:20:28;;;;;;;13.55;4.78;;;;;;;;;;5005420;28;20042;-60
2021/03/26 00:22:54;;;;;;;14.05;4.53;;;;;;;;;;4995739;28;20056;-59
2021/03/26 00:25:20;;;;;;;14.70;4.72;;;;;;;;;;4987101;28;20042;-60
2021/03/26 00:27:47;;;;;;;14.15;5.10;;;;;;;;;;4983515;28;20052;-62
2021/03/26 00:30:13;;;;;;;17.67;5.15;;;;;;;;;;4986351;28;20050;-60
2021/03/26 00:32:39;;;;;;;14.85;6.55;;;;;;;;;;4983352;28;20046;-59
2021/03/26 00:35:07;;;;;;;19.30;6.20;;;;;;;;;;4987145;28;20049;-62
2021/03/26 00:37:33;;;;;;;13.00;6.20;;;;;;;;;;4986604;28;20038;-59
2021/03/26 00:39:59;;;;;;;26.05;6.20;;;;;;;;;;4984548;28;20124;-63
2021/03/26 00:42:25;;;;;;;13.57;6.10;;;;;;;;;;5003211;28;20046;-62
2021/03/26 00:44:52;;;;;;;15.18;6.30;;;;;;;;;;4983179;28;20123;-61
2021/03/26 00:47:18;;;;;;;21.83;6.65;;;;;;;;;;4987491;28;20050;-60
2021/03/26 00:49:44;;;;;;;16.35;7.05;;;;;;;;;;4981613;28;20086;-61
2021/03/26 00:52:10;;;;;;;15.15;6.75;;;;;;;;;;4985775;28;20042;-61
2021/03/26 00:54:39;;;;;;;21.88;8.45;;;;;;;;;;4982948;28;20038;-62
2021/03/26 00:57:06;;;;;;;18.23;7.28;;;;;;;;;;4986428;28;20054;-61
2021/03/26 00:59:32;;;;;;;19.08;7.68;;;;;;;;;;4990786;28;20046;-62
2021/03/26 01:01:59;;;;;;;16.80;7.38;;;;;;;;;;5003895;28;20074;-61
2021/03/26 01:04:24;;;;;;;17.20;7.38;;;;;;;;;;4995237;28;20053;-61
2021/03/26 01:06:51;;;;;;;23.05;8.02;;;;;;;;;;5004725;28;20038;-60
2021/03/26 01:09:17;;;;;;;19.05;7.60;;;;;;;;;;4985351;28;20816;-61
2021/03/26 01:11:43;;;;;;;26.80;8.68;;;;;;;;;;5005203;28;20151;-62
2021/03/26 01:14:12;;;;;;;20.67;8.18;;;;;;;;;;5004322;28;20037;-62
2021/03/26 01:16:38;;;;;;;22.90;8.70;;;;;;;;;;5003920;28;20041;-62
2021/03/26 01:19:05;;;;;;;22.40;8.20;;;;;;;;;;5005162;28;20061;-64
2021/03/26 01:21:33;;;;;;;20.95;9.07;;;;;;;;;;5003245;28;20065;-63
2021/03/26 01:24:01;;;;;;;26.55;10.02;;;;;;;;;;4985903;28;20038;-64
2021/03/26 01:26:27;;;;;;;22.70;9.32;;;;;;;;;;4982166;28;20141;-62
2021/03/26 01:28:54;;;;;;;21.60;8.75;;;;;;;;;;4986755;28;20056;-63
2021/03/26 01:31:20;;;;;;;25.25;9.70;;;;;;;;;;4993441;28;20049;-62
2021/03/26 01:33:46;;;;;;;20.45;9.55;;;;;;;;;;5007745;28;20048;-63
2021/03/26 01:36:13;;;;;;;23.48;9.15;;;;;;;;;;4995119;28;20038;-60
2021/03/26 01:38:40;;;;;;;21.92;9.25;;;;;;;;;;4986938;28;20046;-59
2021/03/26 01:41:08;;;;;;;21.02;8.93;;;;;;;;;;4985201;28;20049;-63
2021/03/26 01:43:36;;;;;;;24.55;9.15;;;;;;;;;;5002723;28;20094;-61
2021/03/26 01:46:03;;;;;;;20.38;9.38;;;;;;;;;;4994046;28;20042;-62
2021/03/26 01:48:30;;;;;;;29.02;9.88;;;;;;;;;;4985990;28;20042;-62
2021/03/26 01:50:57;;;;;;;24.95;9.35;;;;;;;;;;5002615;28;20049;-63
2021/03/26 01:53:24;;;;;;;19.58;8.85;;;;;;;;;;5005084;28;20056;-63
2021/03/26 01:55:53;;;;;;;22.13;9.13;;;;;;;;;;5017139;28;20037;-63
2021/03/26 01:58:20;;;;;;;21.17;8.63;;;;;;;;;;4984698;28;20038;-62
2021/03/26 02:01:00;;;;;;;22.02;9.13;;;;;;;;;;5001006;28;20145;-63
2021/03/26 02:03:27;;;;;;;20.27;9.15;;;;;;;;;;5002288;28;20034;-63
2021/03/26 02:05:55;;;;;;;21.48;8.82;;;;;;;;;;5004755;28;20049;-63
2021/03/26 02:08:22;;;;;;;24.77;9.82;;;;;;;;;;4985147;28;20057;-63
2021/03/26 02:10:49;;;;;;;25.70;9.05;;;;;;;;;;4986121;28;20166;-60
2021/03/26 02:13:20;;;;;;;26.88;9.35;;;;;;;;;;4995262;28;20137;-62
2021/03/26 02:15:46;;;;;;;24.73;9.90;;;;;;;;;;5004121;28;20053;-63
2021/03/26 02:18:16;;;;;;;19.13;9.05;;;;;;;;;;4988681;28;20054;-63
2021/03/26 02:20:44;;;;;;;18.38;8.20;;;;;;;;;;4985613;28;20048;-62
2021/03/26 02:23:11;;;;;;;19.05;7.97;;;;;;;;;;4982878;28;20054;-62
2021/03/26 02:25:37;;;;;;;20.05;9.00;;;;;;;;;;4986110;28;20042;-64
2021/03/26 02:28:03;;;;;;;24.05;9.77;;;;;;;;;;4983050;28;20053;-63
2021/03/26 02:30:31;;;;;;;22.33;9.07;;;;;;;;;;5001691;28;20042;-60
2021/03/26 02:32:57;;;;;;;19.45;8.10;;;;;;;;;;4989049;28;20046;-61
2021/03/26 02:35:25;;;;;;;19.98;8.27;;;;;;;;;;5005303;28;20042;-63
2021/03/26 02:37:53;;;;;;;19.05;8.32;;;;;;;;;;4997981;28;20053;-59
2021/03/26 02:40:23;;;;;;;17.58;8.52;;;;;;;;;;4985313;28;20042;-59
2021/03/26 02:42:51;;;;;;;23.02;8.32;;;;;;;;;;4980578;28;20046;-59
2021/03/26 02:45:20;;;;;;;21.27;9.30;;;;;;;;;;4995444;28;20053;-60
2021/03/26 02:47:48;;;;;;;24.33;8.52;;;;;;;;;;5022153;28;20045;-60
2021/03/26 02:50:18;;;;;;;22.42;8.98;;;;;;;;;;5001950;28;20056;-59
2021/03/26 02:52:46;;;;;;;20.02;8.65;;;;;;;;;;5002847;28;20042;-60
2021/03/26 02:55:16;;;;;;;21.50;7.95;;;;;;;;;;4984228;28;20050;-59
2021/03/26 02:57:44;;;;;;;25.67;9.55;;;;;;;;;;4985391;28;20053;-59
2021/03/26 03:00:15;;;;;;;21.27;7.63;;;;;;;;;;4980433;28;20054;-60
2021/03/26 03:02:42;;;;;;;25.70;9.20;;;;;;;;;;5004309;28;20029;-60
2021/03/26 03:05:11;;;;;;;22.17;9.13;;;;;;;;;;4988649;28;20050;-58
2021/03/26 03:07:36;;;;;;;;;;;;;;;;;;5002206;28;20053;-57
2021/03/26 03:10:07;;;;;;;22.23;8.27;;;;;;;;;;4987951;28;19969;-63
2021/03/26 03:12:36;;;;;;;19.27;8.07;;;;;;;;;;4998879;28;20046;-60
2021/03/26 03:15:06;;;;;;;23.92;8.63;;;;;;;;;;4981852;28;20042;-63
2021/03/26 03:17:35;;;;;;;23.88;9.55;;;;;;;;;;4983000;28;20042;-60
2021/03/26 03:20:05;;;;;;;22.25;9.05;;;;;;;;;;4981755;28;20105;-61
2021/03/26 03:22:34;;;;;;;25.60;9.70;;;;;;;;;;5001430;28;20042;-61
2021/03/26 03:25:01;;;;;;;;;;;;;;;;;;4987524;28;20045;-59
2021/03/26 03:27:36;;;;;;;23.48;8.38;;;;;;;;;;5020397;28;19917;-60
2021/03/26 03:30:08;;;;;;;28.55;9.95;;;;;;;;;;5002159;28;20132;-60
2021/03/26 03:32:41;;;;;;;25.90;9.63;;;;;;;;;;5022000;28;20042;-61
2021/03/26 03:35:10;;;;;;;23.40;9.02;;;;;;;;;;5002562;28;20046;-58
2021/03/26 03:37:39;;;;;;;27.75;10.82;;;;;;;;;;5005922;28;20065;-62
2021/03/26 03:40:05;;;;;;;;;;;;;;;;;;5002376;28;20042;-62
2021/03/26 03:42:35;;;;;;;28.38;9.93;;;;;;;;;;4985865;28;20044;-62
2021/03/26 03:45:11;;;;;;;24.00;9.10;;;;;;;;;;4994265;28;20049;-60
2021/03/26 03:47:40;;;;;;;21.92;8.82;;;;;;;;;;5007034;28;20057;-59
2021/03/26 03:50:10;;;;;;;27.08;9.60;;;;;;;;;;5006077;28;20049;-62
2021/03/26 03:52:37;;;;;;;23.88;10.68;;;;;;;;;;4984040;28;20046;-59
2021/03/26 03:55:08;;;;;;;25.70;10.40;;;;;;;;;;4987475;28;20053;-59
2021/03/26 03:57:36;;;;;;;25.48;9.63;;;;;;;;;;4996940;28;20046;-61
2021/03/26 04:00:08;;;;;;;25.15;10.60;;;;;;;;;;5008304;28;20065;-61
2021/03/26 04:02:36;;;;;;;30.58;11.65;;;;;;;;;;4987327;28;20041;-60
2021/03/26 04:05:04;;;;;;;24.48;9.98;;;;;;;;;;4987577;28;20030;-62
2021/03/26 04:07:32;;;;;;;23.00;10.25;;;;;;;;;;4995890;28;20034;-62
2021/03/26 04:10:01;;;;;;;22.08;9.35;;;;;;;;;;5007024;28;20050;-59
2021/03/26 04:12:31;;;;;;;27.20;10.82;;;;;;;;;;5002073;28;20057;-61
2021/03/26 04:14:59;;;;;;;28.67;11.05;;;;;;;;;;5006482;28;20038;-60
2021/03/26 04:17:28;;;;;;;25.73;10.68;;;;;;;;;;4993804;28;20109;-59
2021/03/26 04:19:54;;;;;;;;;;;;;;;;;;4987727;28;20046;-59
2021/03/26 04:22:22;;;;;;;21.02;8.77;;;;;;;;;;4988967;28;19940;-60
2021/03/26 04:24:50;;;;;;;28.52;11.05;;;;;;;;;;5024106;28;20042;-59
2021/03/26 04:27:20;;;;;;;27.75;11.18;;;;;;;;;;4997866;28;20062;-59
2021/03/26 04:29:48;;;;;;;25.95;10.75;;;;;;;;;;4986923;28;20094;-60
2021/03/26 04:32:15;;;;;;;29.47;11.37;;;;;;;;;;4985026;28;20072;-60
2021/03/26 04:34:42;;;;;;;26.27;10.63;;;;;;;;;;4988231;28;20073;-63
2021/03/26 04:37:13;;;;;;;26.13;10.82;;;;;;;;;;4984308;28;20057;-62
2021/03/26 04:39:46;;;;;;;28.13;11.30;;;;;;;;;;4986528;28;20053;-62
2021/03/26 04:42:13;;;;;;;26.58;10.50;;;;;;;;;;4985854;28;20050;-61
2021/03/26 04:44:49;;;;;;;30.08;10.95;;;;;;;;;;4986541;28;20042;-59
2021/03/26 04:47:19;;;;;;;23.50;9.98;;;;;;;;;;4986190;28;20054;-61
2021/03/26 04:49:49;;;;;;;23.92;9.45;;;;;;;;;;5002033;28;20034;-59
2021/03/26 04:52:18;;;;;;;22.85;9.77;;;;;;;;;;5002838;28;20042;-60
2021/03/26 04:54:44;;;;;;;;;;;;;;;;;;5002142;28;20064;-60
2021/03/26 04:57:14;;;;;;;23.70;8.70;;;;;;;;;;4985178;28;19922;-60
2021/03/26 04:59:44;;;;;;;28.60;11.55;;;;;;;;;;4981798;28;20053;-62
2021/03/26 05:02:12;;;;;;;24.85;11.05;;;;;;;;;;4998796;28;20048;-62
2021/03/26 05:04:40;;;;;;;27.42;11.25;;;;;;;;;;4984658;28;20034;-61
2021/03/26 05:07:08;;;;;;;29.08;11.05;;;;;;;;;;4982957;28;20062;-60
2021/03/26 05:09:37;;;;;;;28.55;12.02;;;;;;;;;;4990037;28;20050;-61
2021/03/26 05:12:06;;;;;;;30.67;12.75;;;;;;;;;;5001329;28;20053;-59
2021/03/26 05:14:35;;;;;;;21.65;9.15;;;;;;;;;;4998464;28;20057;-59
2021/03/26 05:17:06;;;;;;;24.63;9.45;;;;;;;;;;5001424;28;20042;-60
2021/03/26 05:19:36;;;;;;;31.13;10.43;;;;;;;;;;4992827;28;20046;-60
2021/03/26 05:22:09;;;;;;;30.65;10.93;;;;;;;;;;4983498;28;20050;-61
2021/03/26 05:24:36;;;;;;;27.17;10.93;;;;;;;;;;4980128;28;20034;-62
2021/03/26 05:27:12;;;;;;;30.02;12.43;;;;;;;;;;4984716;28;20090;-60
2021/03/26 05:29:39;;;;;;;33.28;11.70;;;;;;;;;;4979850;28;20050;-61
2021/03/26 05:32:10;;;;;;;30.95;11.80;;;;;;;;;;4983649;28;20116;-60
2021/03/26 05:34:43;;;;;;;29.33;12.60;;;;;;;;;;4980070;28;21294;-59
2021/03/26 05:37:15;;;;;;;31.13;11.75;;;;;;;;;;4981968;28;20042;-60
2021/03/26 05:39:43;;;;;;;25.60;10.07;;;;;;;;;;4980457;28;20038;-60
2021/03/26 05:42:17;;;;;;;31.83;11.80;;;;;;;;;;4983233;28;20044;-60
2021/03/26 05:44:50;;;;;;;24.42;10.02;;;;;;;;;;4981840;28;20053;-60
2021/03/26 05:47:27;;;;;;;30.00;11.23;;;;;;;;;;4984139;28;20050;-59
2021/03/26 05:49:58;;;;;;;25.98;10.23;;;;;;;;;;4981150;28;20045;-59
2021/03/26 05:52:37;;;;;;;24.48;10.20;;;;;;;;;;4985086;28;20113;-59
2021/03/26 05:55:16;;;;;;;25.92;10.52;;;;;;;;;;4983274;28;20109;-60
2021/03/26 05:57:44;;;;;;;27.90;10.27;;;;;;;;;;4998985;28;20031;-60
2021/03/26 06:00:29;;;;;;;28.77;11.57;;;;;;;;;;4985131;28;20058;-63
2021/03/26 06:03:25;;;;;;;27.67;11.13;;;;;;;;;;4981675;28;20053;-61
2021/03/26 06:06:09;;;;;;;26.35;9.48;;;;;;;;;;4979336;28;20070;-63
2021/03/26 06:08:50;;;;;;;20.98;8.80;;;;;;;;;;4984683;28;20042;-61
2021/03/26 06:11:27;;;;;;;22.75;10.05;;;;;;;;;;4979372;28;20042;-63
2021/03/26 06:14:01;;;;;;;25.17;9.32;;;;;;;;;;4983481;28;20046;-62
2021/03/26 06:16:30;;;;;;;26.45;10.02;;;;;;;;;;4982227;28;20100;-60
2021/03/26 06:19:20;;;;;;;24.77;9.68;;;;;;;;;;4999122;28;20214;-62
2021/03/26 06:21:52;;;;;;;29.27;10.35;;;;;;;;;;4992577;28;20050;-62
2021/03/26 06:24:36;;;;;;;27.60;10.25;;;;;;;;;;4993466;28;20053;-63
2021/03/26 06:27:07;;;;;;;25.92;10.90;;;;;;;;;;5006797;28;20055;-60
2021/03/26 06:29:43;;;;;;;30.48;10.70;;;;;;;;;;4996038;28;20197;-63
2021/03/26 06:32:34;;;;;;;25.48;9.65;;;;;;;;;;4988777;28;20026;-63
2021/03/26 06:35:18;;;;;;;24.73;10.02;;;;;;;;;;4996511;28;20043;-63
2021/03/26 06:37:58;;;;;;;29.05;9.82;;;;;;;;;;4949539;28;20347;-62
2021/03/26 06:40:48;;;;;;;25.23;9.65;;;;;;;;;;5014630;28;20038;-62
2021/03/26 06:43:24;;;;;;;26.38;10.75;;;;;;;;;;4974927;28;20075;-63
2021/03/26 06:45:59;;;;;;;26.00;11.20;;;;;;;;;;4993614;28;20038;-61
2021/03/26 06:48:29;;;;;;;31.52;12.00;;;;;;;;;;4992120;28;20120;-62
2021/03/26 06:51:01;;;;;;;23.88;9.00;;;;;;;;;;4995063;28;20049;-59
2021/03/26 06:53:30;;;;;;;22.85;9.18;;;;;;;;;;4992142;28;20066;-63
2021/03/26 06:56:07;;;;;;;25.90;10.38;;;;;;;;;;4995079;28;20038;-63
2021/03/26 06:58:48;;;;;;;29.25;10.05;;;;;;;;;;4989824;28;20050;-62
2021/03/26 07:01:21;;;;;;;23.00;9.98;;;;;;;;;;4999703;28;20054;-62
2021/03/26 07:04:15;;;;;;;24.35;9.38;;;;;;;;;;4991554;28;20049;-60
2021/03/26 07:06:56;;;;;;;32.35;10.93;;;;;;;;;;4997880;28;20060;-61
2021/03/26 07:09:40;;;;;;;33.03;12.10;;;;;;;;;;5000824;28;20069;-60
2021/03/26 07:12:19;;;;;;;25.50;10.50;;;;;;;;;;5010081;28;20087;-63
2021/03/26 07:14:57;;;;;;;27.08;9.93;;;;;;;;;;5003728;28;20062;-62
2021/03/26 07:17:30;;;;;;;27.92;11.43;;;;;;;;;;5004241;28;20046;-61
2021/03/26 07:20:17;;;;;;;31.02;10.63;;;;;;;;;;4989783;28;20046;-63
2021/03/26 07:23:14;;;;;;;22.77;9.95;;;;;;;;;;4983327;28;20044;-59
2021/03/26 07:25:49;;;;;;;30.50;11.50;;;;;;;;;;4984095;28;20078;-62
2021/03/26 07:28:27;;;;;;;31.67;11.30;;;;;;;;;;4987787;28;20038;-61
2021/03/26 07:30:58;;;;;;;28.60;11.10;;;;;;;;;;4985528;28;20042;-60
2021/03/26 07:33:27;;;;;;;27.02;10.10;;;;;;;;;;4993113;28;20566;-60
2021/03/26 07:35:53;;;;;;;;;;;;;;;;;;4988090;28;20046;-62
2021/03/26 07:38:27;;;;;;;25.45;8.48;;;;;;;;;;4985358;28;19928;-62
2021/03/26 07:40:58;;;;;;;23.92;8.90;;;;;;;;;;4983188;28;20042;-58
2021/03/26 07:43:53;;;;;;;29.23;11.05;;;;;;;;;;4992910;28;20056;-62
2021/03/26 07:46:38;;;;;;;30.52;10.45;;;;;;;;;;4936865;28;20038;-60
2021/03/26 07:49:10;;;;;;;32.65;11.40;;;;;;;;;;4985679;28;20054;-63
2021/03/26 07:51:37;;;;;;;30.67;11.85;;;;;;;;;;4988799;28;20038;-61
2021/03/26 07:54:19;;;;;;;32.58;11.73;;;;;;;;;;5004162;28;20053;-60
2021/03/26 07:57:15;;;;;;;29.60;11.23;;;;;;;;;;4983573;28;20065;-62
2021/03/26 07:59:48;;;;;;;23.73;9.10;;;;;;;;;;4987386;28;20044;-62
2021/03/26 08:02:17;;;;;;;29.95;11.38;;;;;;;;;;5000248;28;20046;-62
2021/03/26 08:04:47;;;;;;;38.85;13.23;;;;;;;;;;5006275;28;20054;-62
2021/03/26 08:07:39;;;;;;;24.73;10.55;;;;;;;;;;4986318;28;20056;-62
2021/03/26 08:10:12;;;;;;;30.20;11.35;;;;;;;;;;5004893;28;20050;-62
2021/03/26 08:12:43;;;;;;;28.40;11.13;;;;;;;;;;4982071;28;20042;-62
2021/03/26 08:15:24;;;;;;;26.67;10.15;;;;;;;;;;4986943;28;20053;-62
2021/03/26 08:17:54;;;;;;;32.47;12.38;;;;;;;;;;4977374;28;20113;-61
2021/03/26 08:20:28;;;;;;;32.72;12.95;;;;;;;;;;4986391;28;20042;-62
2021/03/26 08:23:08;;;;;;;33.13;12.35;;;;;;;;;;4982088;28;20048;-62
2021/03/26 08:25:41;;;;;;;34.70;11.82;;;;;;;;;;5000685;28;20038;-63
2021/03/26 08:28:32;;;;;;;35.88;13.48;;;;;;;;;;5000302;28;20131;-61
2021/03/26 08:31:16;;;;;;;31.17;12.65;;;;;;;;;;4995281;28;20041;-63
2021/03/26 08:34:02;;;;;;;29.98;12.20;;;;;;;;;;5006347;28;20038;-62
2021/03/26 08:36:32;;;;;;;30.23;10.98;;;;;;;;;;5002304;28;20111;-63
2021/03/26 08:39:12;;;;;;;30.20;11.75;;;;;;;;;;4985473;28;20105;-59
2021/03/26 08:41:40;;;;;;;28.13;11.57;;;;;;;;;;4983947;28;20038;-62
2021/03/26 08:44:07;;;;;;;32.13;10.57;;;;;;;;;;5002386;28;20119;-62
2021/03/26 08:46:34;;;;;;;27.35;10.18;;;;;;;;;;5025333;28;20029;-61
2021/03/26 08:49:04;;;;;;;37.45;12.90;;;;;;;;;;4986263;28;20177;-61
2021/03/26 08:51:49;;;;;;;27.95;9.70;;;;;;;;;;4987943;28;20124;-64
2021/03/26 08:54:26;;;;;;;29.25;10.82;;;;;;;;;;5000672;28;20046;-63
2021/03/26 08:57:00;;;;;;;27.88;11.23;;;;;;;;;;4987130;28;20141;-62
2021/03/26 08:59:44;;;;;;;29.58;10.93;;;;;;;;;;4999046;28;20042;-61
2021/03/26 09:02:25;;;;;;;27.70;9.27;;;;;;;;;;5005850;28;20049;-60
2021/03/26 09:04:58;;;;;;;24.52;8.95;;;;;;;;;;5001678;28;20057;-63
2021/03/26 09:07:31;;;;;;;28.40;9.25;;;;;;;;;;5001088;28;20038;-61
2021/03/26 09:10:16;;;;;;;28.63;11.52;;;;;;;;;;4998327;28;20052;-59
2021/03/26 09:13:00;;;;;;;25.55;9.25;;;;;;;;;;5000701;28;20042;-63
2021/03/26 09:15:41;;;;;;;17.45;7.53;;;;;;;;;;4982352;28;20038;-63
2021/03/26 09:18:14;;;;;;;28.00;9.55;;;;;;;;;;4994387;28;20059;-62
2021/03/26 09:20:42;;;;;;;23.80;8.75;;;;;;;;;;4981399;28;20043;-60
2021/03/26 09:23:22;;;;;;;27.63;9.80;;;;;;;;;;4981610;28;20038;-63
2021/03/26 09:25:51;;;;;;;26.70;10.45;;;;;;;;;;4980591;28;20148;-60
2021/03/26 09:28:17;;;;;;;;;;;;;;;;;;4984418;28;20112;-60
2021/03/26 09:30:45;;;;;;;22.38;8.63;;;;;;;;;;4978044;28;20378;-62
2021/03/26 09:33:13;;;;;;;21.88;8.43;;;;;;;;;;4982802;28;20059;-63
2021/03/26 09:35:46;;;;;;;17.60;6.25;;;;;;;;;;4979417;28;20042;-62
2021/03/26 09:38:20;;;;;;;28.52;7.85;;;;;;;;;;4981029;28;20046;-60
2021/03/26 09:40:51;;;;;;;19.13;7.38;;;;;;;;;;4994046;28;20046;-60
2021/03/26 09:43:21;;;;;;;17.40;7.75;;;;;;;;;;4996288;28;20054;-59
2021/03/26 09:45:53;;;;;;;19.23;6.65;;;;;;;;;;4978941;28;20043;-62
2021/03/26 09:48:24;;;;;;;15.27;5.75;;;;;;;;;;4982507;28;20082;-60
2021/03/26 09:50:56;;;;;;;17.73;6.93;;;;;;;;;;4991191;28;20362;-61
2021/03/26 09:53:22;;;;;;;20.35;6.72;;;;;;;;;;5000346;28;20049;-62
2021/03/26 09:55:51;;;;;;;19.02;6.95;;;;;;;;;;4986488;28;20057;-62
2021/03/26 09:58:23;;;;;;;19.95;7.82;;;;;;;;;;4982289;28;20030;-62
2021/03/26 10:00:54;;;;;;;18.10;6.97;;;;;;;;;;4978499;28;20043;-61
2021/03/26 10:03:26;;;;;;;13.27;5.85;;;;;;;;;;4982977;28;20042;-61
2021/03/26 10:05:55;;;;;;;15.48;5.57;;;;;;;;;;4997861;28;20037;-60
2021/03/26 10:11:09;;;;;;;12.30;5.28;;;;;;;;;;4991476;28;20086;-62
2021/03/26 10:13:41;;;;;;;11.45;4.85;;;;;;;;;;5005037;28;20104;-62
2021/03/26 10:16:10;;;;;;;14.27;5.03;;;;;;;;;;4992473;28;20078;-60
2021/03/26 10:18:35;;;;;;;;;;;;;;;;;;5002963;28;20034;-62
2021/03/26 10:21:09;;;;;;;12.43;4.45;;;;;;;;;;4980940;28;19925;-62
2021/03/26 10:23:37;;;;;;;20.77;5.45;;;;;;;;;;4985222;28;20042;-60
2021/03/26 10:26:06;;;;;;;26.00;5.90;;;;;;;;;;5002159;28;20045;-62
2021/03/26 10:28:49;;;;;;;18.73;4.70;;;;;;;;;;5003968;28;20144;-61
2021/03/26 10:31:17;;;;;;;13.32;4.65;;;;;;;;;;5014765;28;20049;-60
2021/03/26 10:33:46;;;;;;;13.68;4.85;;;;;;;;;;4984625;28;20109;-62
2021/03/26 10:36:17;;;;;;;13.80;3.95;;;;;;;;;;4999453;28;20042;-61
2021/03/26 10:38:47;;;;;;;14.73;4.20;;;;;;;;;;5007552;28;20038;-62
2021/03/26 10:41:20;;;;;;;8.77;3.55;;;;;;;;;;5025161;28;20056;-61
2021/03/26 10:43:49;;;;;;;11.38;4.55;;;;;;;;;;4996014;28;20057;-62
2021/03/26 10:46:20;;;;;;;13.27;4.70;;;;;;;;;;4989835;28;20038;-61
2021/03/26 10:48:49;;;;;;;16.73;4.65;;;;;;;;;;4999536;28;20046;-62
2021/03/26 10:51:15;;;;;;;;;;;;;;;;;;4987564;28;20035;-61
2021/03/26 10:53:43;;;;;;;9.38;3.60;;;;;;;;;;4999223;28;19932;-61
2021/03/26 10:56:13;;;;;;;10.87;3.73;;;;;;;;;;4988141;28;20044;-62
2021/03/26 10:58:40;;;;;;;11.45;3.60;;;;;;;;;;5014749;28;20279;-62
2021/03/26 11:01:10;;;;;;;9.63;3.80;;;;;;;;;;5006251;28;20037;-63
2021/03/26 11:03:38;;;;;;;11.93;3.58;;;;;;;;;;5002945;28;20038;-62
2021/03/26 11:06:10;;;;;;;9.70;3.50;;;;;;;;;;4999899;28;20062;-62
2021/03/26 11:08:45;;;;;;;12.38;3.25;;;;;;;;;;4980224;28;20050;-61
2021/03/26 11:11:27;;;;;;;12.70;2.90;;;;;;;;;;4984392;28;20051;-62
2021/03/26 11:14:12;;;;;;;9.27;3.15;;;;;;;;;;4979720;28;20050;-62
2021/03/26 11:16:39;;;;;;;7.82;3.00;;;;;;;;;;4981413;28;20158;-60
2021/03/26 11:19:07;;;;;;;9.10;3.08;;;;;;;;;;4969292;28;20049;-59
2021/03/26 11:21:35;;;;;;;15.30;3.13;;;;;;;;;;4963645;28;20059;-59
2021/03/26 11:24:03;;;;;;;6.63;2.28;;;;;;;;;;4968623;28;20132;-59
2021/03/26 11:26:31;;;;;;;8.18;1.90;;;;;;;;;;4984209;28;20046;-60
2021/03/26 11:29:05;;;;;;;8.70;2.60;;;;;;;;;;4980796;28;20090;-61
2021/03/26 11:31:33;;;;;;;7.47;2.00;;;;;;;;;;4984350;28;20174;-61
2021/03/26 11:34:02;;;;;;;7.43;2.17;;;;;;;;;;4976969;28;20035;-59
2021/03/26 11:36:39;;;;;;;6.65;2.63;;;;;;;;;;4964148;28;20043;-62
2021/03/26 11:39:07;;;;;;;7.82;2.05;;;;;;;;;;4966410;28;20045;-61
2021/03/26 11:41:35;;;;;;;10.70;2.35;;;;;;;;;;4982929;28;20049;-60
2021/03/26 11:44:03;;;;;;;10.27;2.53;;;;;;;;;;4970792;28;20102;-61
2021/03/26 11:46:36;;;;;;;12.90;2.72;;;;;;;;;;4984072;28;20050;-58
2021/03/26 11:49:04;;;;;;;18.73;3.20;;;;;;;;;;4968294;28;20047;-61
2021/03/26 11:51:32;;;;;;;7.47;2.45;;;;;;;;;;4967323;28;20039;-59
2021/03/26 11:54:09;;;;;;;7.85;2.55;;;;;;;;;;4967055;28;20043;-59
2021/03/26 11:56:42;;;;;;;11.32;2.60;;;;;;;;;;4964390;28;20047;-60
2021/03/26 11:59:13;;;;;;;8.38;2.45;;;;;;;;;;4964336;28;20066;-59
2021/03/26 12:01:45;;;;;;;7.57;2.10;;;;;;;;;;4991618;28;20050;-61
2021/03/26 12:04:14;;;;;;;12.00;2.05;;;;;;;;;;4991662;28;20332;-60
2021/03/26 12:06:45;;;;;;;6.57;1.88;;;;;;;;;;4986632;28;20050;-62
2021/03/26 12:09:14;;;;;;;9.63;2.05;;;;;;;;;;5003067;28;20050;-60
2021/03/26 12:11:46;;;;;;;9.43;2.20;;;;;;;;;;4995028;28;20050;-61
2021/03/26 12:14:16;;;;;;;8.55;2.38;;;;;;;;;;4985548;28;20049;-60
2021/03/26 12:16:44;;;;;;;5.55;2.03;;;;;;;;;;4998941;28;20044;-62
2021/03/26 12:19:16;;;;;;;9.00;1.90;;;;;;;;;;4994125;28;20038;-61
2021/03/26 12:21:47;;;;;;;7.32;2.30;;;;;;;;;;4983029;28;20048;-60
2021/03/26 12:24:20;;;;;;;9.45;2.67;;;;;;;;;;4985176;28;20038;-62
2021/03/26 12:26:53;;;;;;;9.05;2.90;;;;;;;;;;4998900;28;20074;-61
2021/03/26 12:29:23;;;;;;;9.25;3.22;;;;;;;;;;4985525;28;20038;-61
2021/03/26 12:31:54;;;;;;;14.07;2.70;;;;;;;;;;4993166;28;20061;-59
2021/03/26 12:34:28;;;;;;;9.27;2.47;;;;;;;;;;4998379;28;20033;-59
2021/03/26 12:36:58;;;;;;;14.23;2.90;;;;;;;;;;4992825;28;20050;-59
2021/03/26 12:39:29;;;;;;;9.63;2.88;;;;;;;;;;4969994;28;20046;-62
2021/03/26 12:42:00;;;;;;;17.40;3.83;;;;;;;;;;4981228;28;20116;-59
2021/03/26 12:44:29;;;;;;;12.60;3.28;;;;;;;;;;4999805;28;20049;-62
2021/03/26 12:47:00;;;;;;;9.98;3.80;;;;;;;;;;5001027;28;20041;-59
2021/03/26 12:49:28;;;;;;;16.90;2.92;;;;;;;;;;5006593;28;20088;-59
2021/03/26 12:51:59;;;;;;;9.85;3.00;;;;;;;;;;4997943;28;20120;-60
2021/03/26 12:54:30;;;;;;;10.00;3.05;;;;;;;;;;4986679;28;20049;-59
2021/03/26 12:56:59;;;;;;;8.07;2.88;;;;;;;;;;4999844;28;20037;-61
2021/03/26 12:59:26;;;;;;;6.32;2.72;;;;;;;;;;5002768;28;20050;-59
2021/03/26 13:01:53;;;;;;;10.68;3.13;;;;;;;;;;4983204;28;20065;-59
2021/03/26 13:04:26;;;;;;;9.45;3.20;;;;;;;;;;5001722;28;20053;-60
2021/03/26 13:06:55;;;;;;;10.77;3.35;;;;;;;;;;4986244;28;20030;-59
2021/03/26 13:09:38;;;;;;;4.68;1.75;;;;;;;;;;5020845;28;20052;-60
2021/03/26 13:12:10;;;;;;;8.65;2.30;;;;;;;;;;4989466;28;20041;-59
2021/03/26 13:14:42;;;;;;;7.68;2.13;;;;;;;;;;5003177;28;20042;-61
2021/03/26 13:17:15;;;;;;;8.75;2.38;;;;;;;;;;5005573;28;20103;-61
2021/03/26 13:19:41;;;;;;;5.70;2.13;;;;;;;;;;5001867;28;20033;-59
2021/03/26 13:22:25;;;;;;;8.75;2.60;;;;;;;;;;5007375;28;20052;-61
2021/03/26 13:24:55;;;;;;;10.02;2.42;;;;;;;;;;4982696;28;20049;-59
2021/03/26 13:27:29;;;;;;;8.57;2.40;;;;;;;;;;4987409;28;20058;-61
2021/03/26 13:29:58;;;;;;;8.18;2.45;;;;;;;;;;4981609;28;20054;-60
2021/03/26 13:32:26;;;;;;;6.30;2.30;;;;;;;;;;4986150;28;20071;-60
2021/03/26 13:34:54;;;;;;;6.03;2.25;;;;;;;;;;4981066;28;20047;-59
2021/03/26 13:37:23;;;;;;;6.30;2.30;;;;;;;;;;4985871;28;20026;-61
2021/03/26 13:39:51;;;;;;;10.77;3.00;;;;;;;;;;4982105;28;20127;-61
2021/03/26 13:42:20;;;;;;;8.30;1.95;;;;;;;;;;4986052;28;20034;-61
2021/03/26 13:44:53;;;;;;;6.78;2.13;;;;;;;;;;4986923;28;20046;-60
2021/03/26 13:47:28;;;;;;;8.50;1.90;;;;;;;;;;4984573;28;20100;-61
2021/03/26 13:49:57;;;;;;;11.38;2.00;;;;;;;;;;4982467;28;20057;-60
2021/03/26 13:52:27;;;;;;;5.53;1.88;;;;;;;;;;5003969;28;20046;-60
2021/03/26 13:54:59;;;;;;;5.05;1.77;;;;;;;;;;5001005;28;20034;-61
2021/03/26 13:57:27;;;;;;;8.63;2.10;;;;;;;;;;4986730;28;20144;-61
2021/03/26 13:59:57;;;;;;;6.85;1.70;;;;;;;;;;4989335;28;20061;-61
2021/03/26 14:02:27;;;;;;;7.38;1.83;;;;;;;;;;5004247;28;20042;-62
2021/03/26 14:05:08;;;;;;;7.25;1.65;;;;;;;;;;4992385;28;20038;-61
2021/03/26 14:07:35;;;;;;;7.40;1.55;;;;;;;;;;4980592;28;20049;-60
2021/03/26 14:10:05;;;;;;;5.68;1.75;;;;;;;;;;4979478;28;20061;-61
2021/03/26 14:12:32;;;;;;;12.52;1.92;;;;;;;;;;4979390;28;20062;-61
2021/03/26 14:15:02;;;;;;;10.15;1.83;;;;;;;;;;4978250;28;20053;-58
2021/03/26 14:17:31;;;;;;;3.90;1.60;;;;;;;;;;4981785;28;20134;-59
2021/03/26 14:20:00;;;;;;;5.28;1.65;;;;;;;;;;4978535;28;20034;-59
2021/03/26 14:22:27;;;;;;;2.95;1.10;;;;;;;;;;4982747;28;20046;-59
2021/03/26 14:25:02;;;;;;;6.80;1.55;;;;;;;;;;4981566;28;20039;-60
2021/03/26 14:27:38;;;;;;;5.05;1.27;;;;;;;;;;5014800;28;20042;-58
2021/03/26 14:30:11;;;;;;;4.47;1.27;;;;;;;;;;5000941;28;20038;-60
2021/03/26 14:32:40;;;;;;;5.30;1.25;;;;;;;;;;4979925;28;20061;-58
2021/03/26 14:35:09;;;;;;;3.65;1.00;;;;;;;;;;4981080;28;20038;-61
2021/03/26 14:37:37;;;;;;;2.35;1.10;;;;;;;;;;4996573;28;20039;-60
2021/03/26 14:40:06;;;;;;;5.38;1.30;;;;;;;;;;5000981;28;20042;-62
2021/03/26 14:42:33;;;;;;;3.97;1.63;;;;;;;;;;4981946;28;20034;-61
2021/03/26 14:45:01;;;;;;;3.67;1.30;;;;;;;;;;4989391;28;20038;-60
2021/03/26 14:47:30;;;;;;;6.28;1.30;;;;;;;;;;4997431;28;20038;-60
2021/03/26 14:50:10;;;;;;;8.13;1.40;;;;;;;;;;5002956;28;20108;-60
2021/03/26 14:52:42;;;;;;;2.95;1.17;;;;;;;;;;4983534;28;20049;-58
2021/03/26 14:55:22;;;;;;;3.78;1.30;;;;;;;;;;4981631;28;20046;-61
2021/03/26 14:57:55;;;;;;;3.35;1.40;;;;;;;;;;4980739;28;20146;-59
2021/03/26 15:00:28;;;;;;;9.32;1.45;;;;;;;;;;4983631;28;20144;-59